createdAt,value
2022-08-04T00:02:18.502Z,54.06
2022-08-04T00:04:54.617Z,54.21
2022-08-04T00:07:42.458Z,54.31
2022-08-04T00:10:13.024Z,54.51
2022-08-04T00:12:46.625Z,54.52
2022-08-04T00:15:16.650Z,54.75
2022-08-04T00:17:46.357Z,54.63
2022-08-04T00:20:18.607Z,54.93
2022-08-04T00:22:48.165Z,54.87
2022-08-04T00:25:15.004Z,55.19
2022-08-04T00:27:42.175Z,55.14
2022-08-04T00:30:10.323Z,55.21
2022-08-04T00:32:41.521Z,55.41
2022-08-04T00:35:13.853Z,55.56
2022-08-04T00:37:43.249Z,55.56
2022-08-04T00:40:46.007Z,55.67
2022-08-04T00:43:23.962Z,55.92
2022-08-04T00:46:16.180Z,55.96
2022-08-04T00:49:16.395Z,56.13
2022-08-04T00:52:32.141Z,56.27
2022-08-04T00:55:27.312Z,56.44
2022-08-04T00:58:05.957Z,56.47
2022-08-04T01:00:58.889Z,56.62
2022-08-04T01:04:09.460Z,56.76
2022-08-04T01:07:04.076Z,56.84
2022-08-04T01:09:49.391Z,56.72
2022-08-04T01:12:24.987Z,57.03
2022-08-04T01:15:06.304Z,57.18
2022-08-04T01:17:35.707Z,57.26
2022-08-04T01:20:08.249Z,57.12
2022-08-04T01:23:02.874Z,57.45
2022-08-04T01:25:38.519Z,57.61
2022-08-04T01:28:30.469Z,57.78
2022-08-04T01:31:12.911Z,57.81
2022-08-04T01:33:58.591Z,57.84
2022-08-04T01:36:35.299Z,58.11
2022-08-04T01:39:23.634Z,58.06
2022-08-04T01:41:57.782Z,58.31
2022-08-04T01:44:30.909Z,58.30
2022-08-04T01:46:59.838Z,58.40
2022-08-04T01:49:30.119Z,58.37
2022-08-04T01:52:08.716Z,58.56
2022-08-04T01:54:37.769Z,58.59
2022-08-04T01:57:37.831Z,58.66
2022-08-04T01:59:53.015Z,58.72
2022-08-04T02:02:23.898Z,58.82
2022-08-04T02:04:51.629Z,58.92
2022-08-04T02:07:40.262Z,58.87
2022-08-04T02:10:18.223Z,59.08
2022-08-04T02:12:51.947Z,59.21
2022-08-04T02:15:42.651Z,59.15
2022-08-04T02:18:19.393Z,59.15
2022-08-04T02:20:48.953Z,59.13
2022-08-04T02:23:28.033Z,59.16
2022-08-04T02:26:12.602Z,59.38
2022-08-04T02:29:11.035Z,59.39
2022-08-04T02:32:03.830Z,59.44
2022-08-04T02:35:04.392Z,59.52
2022-08-04T02:37:32.628Z,59.73
2022-08-04T02:40:03.113Z,59.67
2022-08-04T02:42:31.892Z,59.90
2022-08-04T02:44:59.857Z,59.81
2022-08-04T02:48:08.243Z,60.05
2022-08-04T02:50:29.173Z,60.02
2022-08-04T02:53:00.119Z,59.99
2022-08-04T02:55:29.217Z,60.10
2022-08-04T02:57:58.125Z,60.13
2022-08-04T03:00:25.882Z,60.21
2022-08-04T03:03:02.043Z,60.10
2022-08-04T03:05:49.966Z,60.06
2022-08-04T03:08:28.501Z,60.23
2022-08-04T03:11:43.428Z,60.25
2022-08-04T03:14:28.485Z,60.24
2022-08-04T03:17:20.098Z,60.37
2022-08-04T03:20:10.542Z,60.37
2022-08-04T03:23:13.104Z,60.34
2022-08-04T03:26:38.524Z,60.40
2022-08-04T03:29:26.056Z,60.51
2022-08-04T03:32:29.221Z,60.51
2022-08-04T03:35:23.334Z,60.59
2022-08-04T03:38:05.082Z,60.62
2022-08-04T03:41:00.351Z,60.74
2022-08-04T03:44:01.109Z,60.49
2022-08-04T03:46:46.735Z,60.65
2022-08-04T03:49:40.227Z,60.76
2022-08-04T03:52:49.151Z,60.81
2022-08-04T03:55:36.261Z,60.98
2022-08-04T03:58:34.172Z,60.91
2022-08-04T04:01:17.333Z,60.95
2022-08-04T04:04:12.498Z,60.80
2022-08-04T04:06:57.310Z,60.71
2022-08-04T04:10:07.386Z,60.50
2022-08-04T04:12:43.617Z,60.42
2022-08-04T04:15:28.997Z,60.30
2022-08-04T04:18:16.538Z,59.90
2022-08-04T04:21:04.948Z,59.54
2022-08-04T04:23:50.428Z,59.05
2022-08-04T04:26:44.750Z,58.61
2022-08-04T04:29:38.091Z,58.47
2022-08-04T04:32:28.228Z,58.18
2022-08-04T04:35:10.731Z,57.96
2022-08-04T04:37:54.463Z,57.46
2022-08-04T04:40:30.855Z,57.22
2022-08-04T04:43:50.859Z,56.81
2022-08-04T04:46:36.478Z,56.43
2022-08-04T04:49:22.767Z,56.06
2022-08-04T04:51:57.856Z,55.57
2022-08-04T04:55:05.957Z,55.39
2022-08-04T04:57:54.748Z,55.16
2022-08-04T05:00:25.824Z,54.84
2022-08-04T05:03:01.098Z,54.56
2022-08-04T05:05:47.195Z,53.98
2022-08-04T05:08:43.945Z,53.74
2022-08-04T05:11:48.631Z,53.40
2022-08-04T05:14:41.394Z,53.11
2022-08-04T05:17:25.060Z,53.01
2022-08-04T05:19:51.427Z,52.56
2022-08-04T05:22:24.931Z,52.14
2022-08-04T05:25:01.531Z,51.90
2022-08-04T05:27:39.697Z,51.63
2022-08-04T05:30:08.875Z,51.50
2022-08-04T05:32:44.175Z,51.21
2022-08-04T05:35:38.961Z,50.98
2022-08-04T05:38:07.433Z,50.62
2022-08-04T05:40:34.369Z,50.34
2022-08-04T05:43:01.910Z,50.03
2022-08-04T05:45:29.880Z,49.86
2022-08-04T05:48:08.741Z,49.44
2022-08-04T05:50:36.426Z,49.24
2022-08-04T05:53:05.677Z,48.94
2022-08-04T05:55:58.286Z,48.69
2022-08-04T05:58:21.366Z,48.21
2022-08-04T06:00:52.515Z,48.02
2022-08-04T06:03:20.845Z,47.72
2022-08-04T06:05:48.630Z,47.53
2022-08-04T06:08:15.432Z,47.32
2022-08-04T06:10:45.592Z,47.18
2022-08-04T06:13:48.018Z,46.77
2022-08-04T06:16:08.317Z,46.43
2022-08-04T06:20:01.891Z,46.09
2022-08-04T06:21:43.961Z,45.84
2022-08-04T06:24:17.207Z,45.42
2022-08-04T06:26:46.769Z,45.01
2022-08-04T06:29:23.230Z,44.60
2022-08-04T06:32:27.960Z,44.18
2022-08-04T06:34:46.980Z,43.97
2022-08-04T06:37:41.415Z,43.76
2022-08-04T06:40:04.134Z,43.36
2022-08-04T06:42:52.194Z,43.05
2022-08-04T06:45:19.820Z,42.79
2022-08-04T06:47:47.552Z,42.62
2022-08-04T06:51:25.042Z,42.44
2022-08-04T06:53:04.193Z,42.22
2022-08-04T06:55:32.894Z,41.94
2022-08-04T06:58:03.916Z,41.76
2022-08-04T07:00:31.751Z,41.54
2022-08-04T07:02:59.342Z,41.19
2022-08-04T07:05:26.256Z,41.08
2022-08-04T07:07:58.029Z,40.96
2022-08-04T07:10:27.327Z,40.73
2022-08-04T07:12:59.215Z,40.55
2022-08-04T07:15:27.173Z,40.29
2022-08-04T07:17:59.287Z,40.18
2022-08-04T07:20:35.289Z,39.91
2022-08-04T07:23:06.657Z,39.70
2022-08-04T07:26:00.877Z,39.45
2022-08-04T07:28:28.983Z,39.25
2022-08-04T07:31:02.807Z,39.27
2022-08-04T07:33:29.749Z,38.95
2022-08-04T07:36:05.070Z,39.02
2022-08-04T07:38:37.432Z,38.79
2022-08-04T07:41:35.362Z,38.74
2022-08-04T07:43:54.264Z,38.47
2022-08-04T07:46:21.433Z,38.31
2022-08-04T07:48:49.185Z,38.36
2022-08-04T07:51:16.918Z,38.10
2022-08-04T07:53:54.714Z,38.28
2022-08-04T07:56:25.045Z,38.09
2022-08-04T07:58:51.859Z,38.02
2022-08-04T08:01:19.439Z,37.78
2022-08-04T08:03:47.865Z,37.68
2022-08-04T08:06:17.200Z,37.53
2022-08-04T08:09:02.076Z,37.57
2022-08-04T08:12:36.636Z,37.36
2022-08-04T08:14:27.798Z,37.20
2022-08-04T08:16:54.510Z,37.27
2022-08-04T08:19:21.194Z,37.03
2022-08-04T08:22:00.074Z,37.08
2022-08-04T08:24:29.492Z,36.93
2022-08-04T08:26:57.458Z,36.90
2022-08-04T08:29:25.505Z,36.71
2022-08-04T08:31:57.265Z,36.70
2022-08-04T08:34:28.942Z,36.63
2022-08-04T08:37:02.451Z,36.46
2022-08-04T08:39:38.243Z,36.43
2022-08-04T08:42:35.964Z,36.17
2022-08-04T08:45:36.929Z,36.05
2022-08-04T08:48:21.013Z,35.96
2022-08-04T08:51:11.274Z,35.86
2022-08-04T08:53:44.777Z,35.96
2022-08-04T08:56:16.174Z,35.92
2022-08-04T08:59:25.913Z,35.92
2022-08-04T09:02:17.835Z,35.58
2022-08-04T09:04:45.950Z,35.36
2022-08-04T09:07:34.934Z,35.20
2022-08-04T09:10:30.586Z,35.19
2022-08-04T09:13:16.294Z,34.77
2022-08-04T09:16:12.907Z,34.72
2022-08-04T09:18:55.800Z,34.79
2022-08-04T09:21:43.434Z,34.68
2022-08-04T09:24:35.249Z,34.62
2022-08-04T09:27:13.981Z,34.27
2022-08-04T09:30:03.817Z,34.31
2022-08-04T09:32:44.273Z,34.16
2022-08-04T09:35:46.461Z,34.09
2022-08-04T09:38:41.914Z,33.98
2022-08-04T09:41:48.329Z,33.74
2022-08-04T09:44:50.632Z,33.74
2022-08-04T09:47:40.199Z,33.70
2022-08-04T09:50:34.502Z,33.62
2022-08-04T09:53:24.312Z,33.38
2022-08-04T09:56:19.175Z,33.37
2022-08-04T09:59:12.063Z,33.61
2022-08-04T10:01:44.261Z,33.61
2022-08-04T10:04:19.234Z,33.58
2022-08-04T10:07:17.885Z,33.51
2022-08-04T10:09:52.022Z,33.48
2022-08-04T10:12:32.105Z,33.51
2022-08-04T10:15:16.563Z,33.47
2022-08-04T10:18:10.232Z,33.63
2022-08-04T10:21:01.353Z,33.64
2022-08-04T10:24:00.137Z,33.60
2022-08-04T10:26:34.323Z,33.48
2022-08-04T10:29:16.795Z,33.48
2022-08-04T10:31:56.774Z,33.56
2022-08-04T10:34:29.565Z,33.61
2022-08-04T10:37:00.246Z,33.67
2022-08-04T10:40:07.001Z,33.72
2022-08-04T10:42:42.451Z,33.52
2022-08-04T10:45:26.357Z,33.48
2022-08-04T10:48:34.163Z,33.29
2022-08-04T10:51:20.532Z,33.10
2022-08-04T10:53:54.981Z,33.02
2022-08-04T10:56:31.405Z,33.18
2022-08-04T10:59:03.687Z,33.05
2022-08-04T11:02:01.283Z,32.98
2022-08-04T11:04:40.951Z,32.81
2022-08-04T11:07:08.428Z,32.80
2022-08-04T11:09:35.410Z,32.94
2022-08-04T11:12:21.097Z,32.77
2022-08-04T11:15:11.372Z,32.65
2022-08-04T11:17:43.220Z,32.69
2022-08-04T11:20:38.235Z,32.59
2022-08-04T11:23:10.218Z,32.58
2022-08-04T11:25:51.794Z,32.43
2022-08-04T11:28:32.251Z,32.24
2022-08-04T11:31:16.130Z,32.12
2022-08-04T11:33:58.336Z,31.99
2022-08-04T11:36:41.484Z,32.08
2022-08-04T11:39:35.044Z,31.97
2022-08-04T11:42:21.175Z,31.76
2022-08-04T11:45:18.624Z,31.67
2022-08-04T11:48:22.638Z,31.77
2022-08-04T11:50:54.015Z,31.57
2022-08-04T11:53:26.754Z,31.51
2022-08-04T11:56:15.224Z,31.48
2022-08-04T11:59:00.956Z,31.38
2022-08-04T12:01:42.890Z,31.39
2022-08-04T12:04:42.839Z,31.49
2022-08-04T12:07:42.285Z,31.35
2022-08-04T12:10:41.779Z,31.32
2022-08-04T12:13:34.887Z,31.24
2022-08-04T12:16:17.440Z,31.10
2022-08-04T12:18:46.862Z,31.10
2022-08-04T12:21:38.820Z,31.01
2022-08-04T12:24:19.800Z,30.83
2022-08-04T12:26:55.316Z,30.69
2022-08-04T12:29:23.229Z,30.86
2022-08-04T12:32:21.746Z,30.74
2022-08-04T12:35:07.445Z,30.85
2022-08-04T12:37:56.230Z,30.50
2022-08-04T12:40:30.115Z,30.66
2022-08-04T12:43:17.477Z,30.57
2022-08-04T12:45:49.249Z,30.47
2022-08-04T12:48:21.425Z,30.67
2022-08-04T12:50:53.338Z,30.50
2022-08-04T12:53:31.769Z,30.48
2022-08-04T12:56:01.358Z,30.35
2022-08-04T12:58:42.824Z,30.38
2022-08-04T13:02:05.753Z,30.51
2022-08-04T13:04:29.039Z,30.51
2022-08-04T13:07:11.540Z,30.39
2022-08-04T13:09:38.727Z,30.50
2022-08-04T13:12:12.479Z,30.46
2022-08-04T13:14:44.837Z,30.37
2022-08-04T13:17:12.055Z,30.40
2022-08-04T13:19:47.072Z,30.41
2022-08-04T13:22:26.687Z,30.33
2022-08-04T13:24:56.915Z,30.30
2022-08-04T13:27:46.342Z,30.32
2022-08-04T13:30:23.192Z,30.25
2022-08-04T13:33:01.482Z,30.09
2022-08-04T13:35:54.721Z,30.04
2022-08-04T13:38:21.379Z,30.14
2022-08-04T13:40:49.060Z,30.15
2022-08-04T13:44:15.495Z,29.99
2022-08-04T13:46:33.631Z,29.95
2022-08-04T13:49:30.943Z,29.95
2022-08-04T13:52:01.518Z,29.86
2022-08-04T13:54:46.840Z,29.75
2022-08-04T13:57:28.994Z,29.85
2022-08-04T14:00:02.975Z,29.79
2022-08-04T14:02:42.168Z,29.66
2022-08-04T14:05:32.551Z,29.78
2022-08-04T14:08:19.858Z,29.78
2022-08-04T14:10:54.830Z,29.81
2022-08-04T14:13:41.983Z,29.83
2022-08-04T14:16:16.976Z,29.90
2022-08-04T14:18:43.899Z,29.90
2022-08-04T14:21:20.225Z,29.73
2022-08-04T14:23:59.757Z,29.83
2022-08-04T14:26:33.936Z,29.78
2022-08-04T14:29:26.923Z,29.63
2022-08-04T14:32:05.568Z,29.60
2022-08-04T14:34:41.522Z,29.60
2022-08-04T14:37:18.480Z,29.56
2022-08-04T14:40:08.020Z,29.48
2022-08-04T14:42:41.268Z,29.48
2022-08-04T14:45:08.376Z,29.53
2022-08-04T14:47:52.038Z,29.37
2022-08-04T14:50:32.227Z,29.58
2022-08-04T14:53:10.467Z,29.59
2022-08-04T14:55:38.697Z,29.63
2022-08-04T14:58:33.911Z,29.39
2022-08-04T15:00:57.639Z,29.53
2022-08-04T15:03:24.730Z,29.49
2022-08-04T15:05:55.269Z,29.45
2022-08-04T15:08:31.361Z,29.37
2022-08-04T15:11:02.892Z,29.64
2022-08-04T15:13:31.912Z,29.47
2022-08-04T15:16:07.278Z,29.48
2022-08-04T15:18:36.974Z,29.42
2022-08-04T15:21:05.281Z,29.37
2022-08-04T15:23:38.602Z,29.51
2022-08-04T15:26:12.211Z,29.48
2022-08-04T15:28:41.900Z,29.60
2022-08-04T15:31:10.556Z,29.63
2022-08-04T15:33:56.660Z,29.46
2022-08-04T15:36:33.236Z,29.41
2022-08-04T15:39:11.017Z,29.56
2022-08-04T15:41:55.354Z,29.66
2022-08-04T15:45:15.635Z,29.67
2022-08-04T15:47:42.829Z,29.80
2022-08-04T15:50:27.945Z,29.66
2022-08-04T15:53:01.030Z,29.82
2022-08-04T15:55:39.557Z,29.85
2022-08-04T15:58:15.448Z,29.78
2022-08-04T16:00:53.380Z,29.91
2022-08-04T16:03:59.160Z,29.98
2022-08-04T16:06:21.963Z,29.97
2022-08-04T16:08:57.974Z,30.02
2022-08-04T16:11:32.342Z,30.04
2022-08-04T16:13:59.781Z,29.92
2022-08-04T16:16:41.731Z,30.09
2022-08-04T16:19:34.947Z,30.25
2022-08-04T16:22:04.400Z,30.25
2022-08-04T16:24:38.929Z,30.08
2022-08-04T16:27:09.650Z,30.08
2022-08-04T16:29:46.690Z,30.17
2022-08-04T16:32:16.286Z,30.18
2022-08-04T16:34:56.867Z,30.25
2022-08-04T16:37:34.568Z,30.30
2022-08-04T16:40:22.972Z,30.35
2022-08-04T16:42:50.068Z,30.29
2022-08-04T16:45:18.187Z,30.43
2022-08-04T16:47:47.664Z,30.34
2022-08-04T16:50:17.928Z,30.40
2022-08-04T16:52:46.250Z,30.57
2022-08-04T16:55:21.455Z,30.39
2022-08-04T16:57:56.715Z,30.35
2022-08-04T17:00:36.216Z,30.46
2022-08-04T17:03:07.498Z,30.52
2022-08-04T17:05:38.315Z,30.53
2022-08-04T17:08:29.080Z,30.59
2022-08-04T17:10:55.658Z,30.68
2022-08-04T17:14:02.054Z,30.84
2022-08-04T17:16:20.746Z,30.92
2022-08-04T17:18:54.167Z,30.80
2022-08-04T17:21:30.914Z,30.87
2022-08-04T17:24:12.814Z,30.95
2022-08-04T17:26:45.337Z,30.92
2022-08-04T17:29:20.026Z,31.03
2022-08-04T17:31:47.870Z,31.14
2022-08-04T17:34:19.140Z,31.04
2022-08-04T17:36:48.107Z,31.05
2022-08-04T17:39:27.009Z,31.17
2022-08-04T17:41:56.929Z,31.12
2022-08-04T17:44:36.586Z,31.21
2022-08-04T17:47:18.820Z,31.34
2022-08-04T17:49:52.774Z,31.51
2022-08-04T17:52:45.081Z,31.55
2022-08-04T17:55:16.344Z,31.62
2022-08-04T17:57:52.464Z,31.75
2022-08-04T18:00:19.862Z,31.82
2022-08-04T18:02:54.099Z,31.85
2022-08-04T18:05:50.185Z,31.93
2022-08-04T18:08:45.352Z,32.12
2022-08-04T18:11:04.302Z,32.29
2022-08-04T18:13:31.387Z,32.41
2022-08-04T18:16:22.860Z,32.54
2022-08-04T18:19:12.420Z,32.53
2022-08-04T18:21:46.478Z,32.83
2022-08-04T18:24:34.448Z,33.02
2022-08-04T18:27:15.078Z,33.18
2022-08-04T18:30:15.497Z,33.20
2022-08-04T18:32:32.955Z,33.32
2022-08-04T18:35:05.201Z,33.44
2022-08-04T18:38:06.648Z,33.71
2022-08-04T18:40:26.766Z,33.76
2022-08-04T18:43:00.162Z,33.81
2022-08-04T18:45:34.719Z,33.90
2022-08-04T18:51:10.226Z,34.26
2022-08-04T18:53:37.524Z,34.49
2022-08-04T18:56:06.075Z,34.65
2022-08-04T18:58:33.688Z,34.78
2022-08-04T19:01:00.651Z,34.91
2022-08-04T19:03:32.935Z,35.08
2022-08-04T19:06:01.500Z,35.24
2022-08-04T19:08:34.478Z,35.55
2022-08-04T19:11:36.925Z,35.53
2022-08-04T19:13:54.602Z,35.80
2022-08-04T19:16:30.569Z,35.93
2022-08-04T19:19:00.127Z,36.30
2022-08-04T19:22:00.393Z,36.39
2022-08-04T19:24:31.675Z,36.56
2022-08-04T19:27:06.348Z,36.81
2022-08-04T19:29:37.167Z,36.85
2022-08-04T19:32:14.154Z,36.98
2022-08-04T19:34:46.234Z,37.20
2022-08-04T19:37:56.889Z,37.39
2022-08-04T19:40:06.180Z,37.51
2022-08-04T19:42:33.035Z,37.71
2022-08-04T19:45:00.511Z,37.61
2022-08-04T19:48:12.017Z,38.04
2022-08-04T19:50:15.902Z,38.16
2022-08-04T19:52:51.559Z,38.30
2022-08-04T19:58:10.489Z,38.61
2022-08-04T20:00:40.392Z,38.77
2022-08-04T20:03:12.739Z,38.83
2022-08-04T20:05:55.189Z,38.99
2022-08-04T20:08:33.882Z,39.20
2022-08-04T20:11:00.449Z,39.15
2022-08-04T20:13:36.971Z,39.31
2022-08-04T20:16:28.672Z,39.49
2022-08-04T20:21:56.021Z,39.98
2022-08-04T20:24:39.944Z,40.11
2022-08-04T20:27:16.091Z,40.22
2022-08-04T20:29:48.293Z,40.47
2022-08-04T20:32:31.881Z,40.64
2022-08-04T20:34:58.710Z,40.83
2022-08-04T20:37:54.791Z,40.68
2022-08-04T20:40:12.883Z,40.94
2022-08-04T20:42:40.168Z,41.02
2022-08-04T20:45:16.327Z,41.33
2022-08-04T20:47:45.513Z,41.40
2022-08-04T20:50:29.897Z,41.53
2022-08-04T20:52:58.088Z,41.57
2022-08-04T20:55:26.569Z,41.76
2022-08-04T20:58:02.559Z,41.84
2022-08-04T21:00:30.865Z,41.79
2022-08-04T21:02:58.757Z,42.09
2022-08-04T21:05:26.401Z,41.99
2022-08-04T21:07:56.655Z,42.03
2022-08-04T21:10:24.748Z,42.28
2022-08-04T21:12:53.476Z,42.28
2022-08-04T21:15:24.663Z,42.43
2022-08-04T21:17:59.524Z,42.62
2022-08-04T21:23:18.860Z,43.13
2022-08-04T21:25:45.261Z,43.49
2022-08-04T21:28:20.489Z,43.62
2022-08-04T21:30:52.409Z,43.63
2022-08-04T21:33:23.161Z,43.84
2022-08-04T21:35:54.207Z,43.69
2022-08-04T21:38:41.753Z,43.89
2022-08-04T21:41:08.440Z,43.77
2022-08-04T21:43:43.182Z,43.88
2022-08-04T21:46:10.284Z,44.12
2022-08-04T21:48:39.197Z,44.12
2022-08-04T21:51:55.683Z,44.18
2022-08-04T21:54:09.143Z,44.42
2022-08-04T21:56:37.931Z,44.45
2022-08-04T21:59:11.497Z,44.77
2022-08-04T22:01:50.323Z,45.07
2022-08-04T22:04:19.283Z,45.07
2022-08-04T22:06:51.632Z,45.33
2022-08-04T22:09:21.601Z,45.30
2022-08-04T22:11:50.755Z,45.39
2022-08-04T22:14:27.129Z,45.76
2022-08-04T22:16:56.706Z,45.87
2022-08-04T22:19:39.640Z,45.88
2022-08-04T22:22:12.546Z,46.23
2022-08-04T22:24:40.553Z,46.31
2022-08-04T22:27:11.426Z,46.53
2022-08-04T22:29:39.408Z,46.69
2022-08-04T22:32:11.527Z,46.95
2022-08-04T22:34:39.612Z,46.80
2022-08-04T22:37:12.775Z,47.03
2022-08-04T22:39:56.117Z,47.12
2022-08-04T22:42:23.088Z,47.14
2022-08-04T22:44:49.476Z,47.54
2022-08-04T22:47:20.223Z,47.46
2022-08-04T22:49:56.590Z,47.63
2022-08-04T22:52:31.954Z,47.89
2022-08-04T22:54:59.528Z,47.98
2022-08-04T22:57:43.041Z,48.24
2022-08-04T23:00:11.353Z,48.47
2022-08-04T23:02:37.915Z,48.59
2022-08-04T23:05:06.025Z,48.64
2022-08-04T23:07:34.021Z,48.75
2022-08-04T23:10:16.481Z,49.11
2022-08-04T23:12:51.359Z,49.02
2022-08-04T23:15:18.255Z,49.18
2022-08-04T23:17:47.918Z,49.25
2022-08-04T23:20:23.649Z,49.29
2022-08-04T23:23:00.614Z,49.26
2022-08-04T23:26:08.384Z,49.41
2022-08-04T23:28:32.033Z,49.61
2022-08-04T23:30:58.508Z,49.56
2022-08-04T23:33:24.897Z,49.81
2022-08-04T23:36:11.934Z,49.94
2022-08-04T23:38:39.642Z,50.07
2022-08-04T23:41:13.552Z,50.19
2022-08-04T23:43:55.052Z,50.27
2022-08-04T23:46:22.834Z,50.34
2022-08-04T23:48:51.514Z,50.27
2022-08-04T23:51:19.171Z,50.60
2022-08-04T23:54:02.483Z,50.72
2022-08-04T23:56:32.261Z,50.65
2022-08-04T23:59:00.258Z,50.64
